Time;durP1;ratioP1;P1;durP2;ratioP2;P2;SDS_P1;SDS_P2;PMS_P1;PMS_P2;Temp;Humidity;BMP_temperature;BMP_pressure;BME280_temperature;BME280_humidity;BME280_pressure;Samples;Min_cycle;Max_cycle;Signal;HPM_P1;HPM_P2
2022/03/17 00:00:22;;;;;;;8.88;6.82;;;4.00;1.40;;;4.84;100.00;95957.15;647449;212;31664;-77
2022/03/17 00:03:05;;;;;;;6.90;4.18;;;4.00;1.40;;;4.88;100.00;95961.70;646998;216;31521;-77
2022/03/17 00:05:45;;;;;;;5.68;4.65;;;4.00;1.40;;;4.95;100.00;95963.31;647359;212;31584;-76
2022/03/17 00:08:27;;;;;;;6.68;4.80;;;4.10;1.40;;;4.95;100.00;95965.47;647831;212;31556;-77
2022/03/17 00:11:15;;;;;;;9.02;5.65;;;4.00;1.40;;;4.79;100.00;95959.92;618241;226;32004;-75
2022/03/17 00:14:02;;;;;;;8.02;6.60;;;4.00;1.40;;;4.80;100.00;95956.83;648401;216;42214;-76
2022/03/17 00:16:44;;;;;;;10.95;6.00;;;4.00;1.40;;;4.81;100.00;95952.16;647813;216;31628;-77
2022/03/17 00:19:26;;;;;;;10.95;7.28;;;4.00;1.40;;;4.81;100.00;95952.75;621126;226;32147;-76
2022/03/17 00:22:15;;;;;;;7.18;5.50;;;4.00;1.40;;;4.79;100.00;95956.65;646299;216;32327;-75
2022/03/17 00:24:57;;;;;;;7.55;5.25;;;4.00;1.40;;;4.77;100.00;95957.28;647811;212;43314;-77
2022/03/17 00:27:39;;;;;;;5.68;4.32;;;4.00;1.40;;;4.80;100.00;95951.67;620198;222;32050;-77
2022/03/17 00:30:21;;;;;;;5.87;5.28;;;4.00;1.40;;;4.79;100.00;95952.35;619414;222;31905;-77
2022/03/17 00:35:51;;;;;;;10.82;5.78;;;4.00;1.40;;;4.79;100.00;95941.98;646867;216;31560;-77
2022/03/17 00:38:33;;;;;;;8.18;4.78;;;4.00;1.40;;;4.83;100.00;95943.42;646825;212;31575;-77
2022/03/17 00:41:15;;;;;;;5.68;5.00;;;3.90;1.40;;;4.82;100.00;95944.54;647268;216;31569;-77
2022/03/17 00:43:56;;;;;;;5.82;4.28;;;3.90;1.40;;;4.91;100.00;95944.42;648075;216;42186;-77
2022/03/17 00:46:39;;;;;;;11.50;6.75;;;3.90;1.40;;;4.86;100.00;95944.23;647045;216;31552;-76
2022/03/17 00:49:20;;;;;;;7.75;5.55;;;3.90;1.40;;;4.86;100.00;95943.20;648448;216;31466;-77
2022/03/17 00:52:01;;;;;;;7.60;4.82;;;3.90;1.40;;;4.79;100.00;95939.14;650614;216;31555;-77
2022/03/17 00:54:43;;;;;;;8.10;6.30;;;3.90;1.40;;;4.73;100.00;95939.25;620784;222;31925;-76
2022/03/17 00:57:25;;;;;;;7.55;5.55;;;3.90;1.40;;;4.76;100.00;95941.16;648925;216;31570;-77
2022/03/17 01:00:09;;;;;;;7.35;4.12;;;3.90;1.40;;;4.72;100.00;95937.41;647314;212;31564;-77
2022/03/17 01:02:51;;;;;;;5.33;4.57;;;3.90;1.40;;;4.72;100.00;95934.35;650668;212;38930;-77
2022/03/17 01:08:08;;;;;;;5.40;5.00;;;3.90;1.40;;;4.75;100.00;95935.29;642167;216;23487;-76
2022/03/17 01:10:55;;;;;;;7.43;6.72;;;3.90;1.40;;;4.77;100.00;95940.25;647669;216;31598;-78
2022/03/17 01:13:37;;;;;;;6.32;5.68;;;3.90;1.40;;;4.75;100.00;95939.16;648277;212;31901;-77
2022/03/17 01:16:19;;;;;;;5.75;5.25;;;3.90;1.40;;;4.72;100.00;95935.31;620215;226;32044;-77
2022/03/17 01:19:01;;;;;;;8.95;6.32;;;3.90;1.40;;;4.66;100.00;95928.50;621397;222;31999;-77
2022/03/17 01:21:43;;;;;;;7.10;5.35;;;3.90;1.40;;;4.65;100.00;95935.16;619591;226;31945;-77
2022/03/17 01:24:25;;;;;;;8.50;5.07;;;4.00;1.40;;;4.66;100.00;95927.05;647022;212;31637;-77
2022/03/17 01:27:06;;;;;;;9.30;5.37;;;3.90;1.40;;;4.70;100.00;95924.56;648542;216;31952;-76
2022/03/17 01:29:54;;;;;;;8.38;5.68;;;3.90;1.40;;;4.67;100.00;95925.67;618955;225;32353;-75
2022/03/17 01:32:42;;;;;;;8.60;5.05;;;3.90;1.40;;;4.68;100.00;95919.02;649762;216;31588;-75
2022/03/17 01:35:52;;;;;;;7.90;5.60;;;3.90;1.40;;;4.64;100.00;95913.20;647853;216;31608;-77
2022/03/17 01:38:34;;;;;;;6.75;4.70;;;4.10;1.40;;;4.64;100.00;95912.67;647877;212;31557;-77
2022/03/17 01:41:16;;;;;;;8.52;5.87;;;4.10;1.40;;;4.58;100.00;95917.66;647751;216;31601;-77
2022/03/17 01:43:58;;;;;;;7.15;6.50;;;4.00;1.40;;;4.59;100.00;95918.58;619710;226;32205;-76
2022/03/17 01:49:30;;;;;;;8.95;7.15;;;4.10;1.40;;;4.61;100.00;95911.94;648396;216;31511;-77
2022/03/17 01:52:18;;;;;;;4.57;3.70;;;4.00;1.40;;;4.68;100.00;95907.84;645924;216;31566;-77
2022/03/17 02:08:10;;;;;;;6.50;5.00;;;4.00;1.40;;;4.38;100.00;95898.45;613168;222;32003;-77
2022/03/17 02:13:47;;;;;;;7.28;5.03;;;4.00;1.40;;;4.36;100.00;95894.03;648116;216;31523;-77
2022/03/17 02:16:32;;;;;;;9.43;5.60;;;4.00;1.40;;;4.39;100.00;95891.42;647600;216;31562;-74
2022/03/17 02:19:15;;;;;;;8.48;7.68;;;4.00;1.40;;;4.36;100.00;95896.17;621123;222;31888;-76
2022/03/17 02:21:56;;;;;;;7.57;5.45;;;4.00;1.40;;;4.36;100.00;95900.58;646873;212;31951;-77
2022/03/17 02:27:33;;;;;;;5.37;4.87;;;3.90;1.40;;;4.49;100.00;95885.69;647624;216;31568;-76
2022/03/17 02:30:13;;;;;;;7.70;5.43;;;3.90;1.40;;;4.47;100.00;95879.71;647611;216;31578;-76
2022/03/17 02:32:59;;;;;;;7.12;6.43;;;3.80;1.40;;;4.33;100.00;95891.86;647767;216;31603;-77
2022/03/17 02:35:55;;;;;;;6.15;4.70;;;3.90;1.40;;;4.45;100.00;95895.98;648435;216;31567;-77
2022/03/17 02:38:36;;;;;;;8.57;6.60;;;3.90;1.40;;;4.42;100.00;95890.00;648924;212;31579;-77
2022/03/17 02:41:23;;;;;;;10.13;5.50;;;3.90;1.40;;;4.37;100.00;95887.48;620382;223;32101;-77
2022/03/17 02:44:05;;;;;;;7.32;5.60;;;3.90;1.40;;;4.49;100.00;95894.55;648264;213;31877;-77
2022/03/17 02:46:47;;;;;;;8.82;6.25;;;3.80;1.40;;;4.38;100.00;95897.53;646364;212;31592;-77
2022/03/17 02:49:28;;;;;;;6.95;4.95;;;3.80;1.40;;;4.30;100.00;95899.08;620304;226;31895;-77
2022/03/17 02:52:16;;;;;;;6.12;5.22;;;3.80;1.40;;;4.28;100.00;95909.73;647360;216;32111;-75
2022/03/17 02:55:12;;;;;;;7.43;5.47;;;3.80;1.40;;;4.31;100.00;95909.88;648636;216;31458;-76
2022/03/17 02:57:56;;;;;;;5.57;4.80;;;3.80;1.40;;;4.25;100.00;95895.56;648725;216;31567;-75
2022/03/17 03:00:38;;;;;;;7.82;6.07;;;3.90;1.40;;;4.22;100.00;95895.05;649389;216;31548;-76
2022/03/17 03:05:55;;;;;;;7.57;5.70;;;3.80;1.40;;;4.21;100.00;95907.38;647517;216;31577;-77
2022/03/17 03:08:37;;;;;;;5.93;5.32;;;3.70;1.40;;;4.19;100.00;95914.13;620262;222;32015;-76
2022/03/17 03:11:19;;;;;;;7.32;5.20;;;3.70;1.40;;;4.25;100.00;95921.05;647002;212;31646;-77
2022/03/17 03:14:02;;;;;;;6.57;5.10;;;3.60;1.40;;;4.20;100.00;95929.69;651010;216;31605;-76
2022/03/17 03:16:46;;;;;;;9.10;6.50;;;3.70;1.40;;;4.22;100.00;95924.02;646040;216;31594;-76
2022/03/17 03:19:34;;;;;;;8.82;6.68;;;3.60;1.40;;;4.21;100.00;95913.77;648600;212;31523;-76
2022/03/17 03:22:17;;;;;;;7.85;5.65;;;3.60;1.40;;;4.17;100.00;95913.62;648026;216;31705;-76
2022/03/17 03:25:02;;;;;;;7.30;5.60;;;3.50;1.40;;;4.13;100.00;95917.06;648193;216;32217;-76
2022/03/17 03:27:44;;;;;;;8.00;4.80;;;3.60;1.40;;;4.03;100.00;95918.91;647877;216;31534;-76
2022/03/17 03:30:30;;;;;;;7.90;4.65;;;3.60;1.40;;;3.99;100.00;95919.34;647909;216;31548;-76
2022/03/17 03:38:40;;;;;;;5.93;4.78;;;3.40;1.40;;;4.00;100.00;95914.05;620426;226;31880;-75
2022/03/17 03:41:24;;;;;;;10.80;7.43;;;3.40;1.40;;;3.98;100.00;95923.30;647287;216;42176;-76
2022/03/17 03:44:15;;;;;;;5.93;4.47;;;3.30;1.40;;;3.92;100.00;95920.34;645265;216;31707;-76
2022/03/17 03:57:33;;;;;;;6.90;5.22;;;3.30;1.40;;;3.84;100.00;95915.19;619811;226;31915;-75
2022/03/17 04:03:06;;;;;;;8.32;4.45;;;3.40;1.40;;;3.96;100.00;95926.88;647188;216;31513;-75
2022/03/17 04:05:50;;;;;;;5.87;4.62;;;3.30;1.40;;;3.88;100.00;95932.98;619866;226;31913;-76
2022/03/17 04:08:34;;;;;;;7.75;4.53;;;3.30;1.40;;;3.88;100.00;95930.08;649376;216;31569;-76
2022/03/17 04:11:27;;;;;;;8.25;5.00;;;3.20;1.40;;;3.90;100.00;95921.36;647100;216;31640;-77
2022/03/17 04:14:18;;;;;;;4.80;3.70;;;3.20;1.40;;;3.91;100.00;95926.83;647941;216;31760;-76
2022/03/17 04:17:02;;;;;;;8.57;5.05;;;3.10;1.40;;;3.93;100.00;95935.00;648201;212;31590;-76
2022/03/17 04:19:53;;;;;;;6.07;5.03;;;3.10;1.40;;;3.86;100.00;95924.97;647339;216;31584;-76
2022/03/17 04:22:38;;;;;;;7.50;5.50;;;3.00;1.40;;;3.84;100.00;95918.45;648091;212;31531;-77
2022/03/17 04:25:23;;;;;;;6.03;4.25;;;3.10;1.40;;;3.94;100.00;95919.30;647814;216;31575;-77
2022/03/17 04:28:13;;;;;;;8.10;6.65;;;3.00;1.40;;;3.87;100.00;95930.77;645498;216;31803;-77
2022/03/17 04:31:01;;;;;;;5.60;4.10;;;3.00;1.40;;;3.82;100.00;95925.66;648567;216;31576;-76
2022/03/17 04:35:52;;;;;;;4.57;3.25;;;3.00;1.40;;;3.62;100.00;95925.08;649144;216;31544;-77
2022/03/17 04:38:35;;;;;;;5.10;4.75;;;3.00;1.40;;;3.66;100.00;95929.84;621721;222;42485;-77
2022/03/17 04:41:25;;;;;;;6.47;3.55;;;3.00;1.40;;;3.66;100.00;95935.27;645480;216;31633;-75
2022/03/17 04:44:21;;;;;;;5.65;3.87;;;3.00;1.40;;;3.62;100.00;95941.16;649094;212;31847;-77
2022/03/17 04:47:08;;;;;;;7.28;5.43;;;3.00;1.40;;;3.69;100.00;95943.81;620464;225;32296;-76
2022/03/17 04:49:50;;;;;;;7.68;4.72;;;3.00;1.40;;;3.58;100.00;95938.75;649448;212;31584;-78
2022/03/17 04:55:31;;;;;;;6.72;4.50;;;3.10;1.40;;;3.62;100.00;95946.90;646795;216;32152;-76
2022/03/17 04:58:18;;;;;;;6.25;5.30;;;2.90;1.40;;;3.63;100.00;95955.05;650213;212;31612;-77
2022/03/17 05:01:00;;;;;;;6.75;4.50;;;2.90;1.40;;;3.64;100.00;95958.19;649385;216;32026;-77
2022/03/17 05:03:46;;;;;;;6.28;4.78;;;2.80;1.40;;;3.71;100.00;95969.32;647896;212;31552;-77
2022/03/17 05:06:34;;;;;;;7.30;4.45;;;2.80;1.40;;;3.62;100.00;95979.61;647901;216;31809;-75
2022/03/17 05:09:21;;;;;;;5.90;4.10;;;2.60;1.40;;;3.41;100.00;95976.87;648500;212;31570;-77
2022/03/17 05:12:08;;;;;;;5.40;4.45;;;2.50;1.40;;;3.30;100.00;95969.60;646351;216;31902;-77
2022/03/17 05:14:59;;;;;;;5.43;4.25;;;2.30;1.40;;;3.36;100.00;95979.15;647832;216;31575;-77
2022/03/17 05:17:48;;;;;;;6.85;4.95;;;2.30;1.40;;;3.28;100.00;95987.05;618381;225;31923;-76
2022/03/17 05:20:40;;;;;;;5.07;4.00;;;2.20;1.40;;;3.20;100.00;95984.09;621159;222;31949;-78
2022/03/17 05:23:30;;;;;;;4.53;4.10;;;2.30;1.40;;;3.14;100.00;95993.50;640707;220;31589;-77
2022/03/17 05:26:15;;;;;;;5.93;5.32;;;2.20;1.40;;;3.11;100.00;95995.22;647170;212;32284;-75
2022/03/17 05:29:07;;;;;;;4.37;3.97;;;2.10;1.40;;;3.04;100.00;95996.67;620014;226;32069;-77
2022/03/17 05:31:58;;;;;;;4.95;4.05;;;2.10;1.40;;;3.17;100.00;95999.74;645366;216;31671;-76
2022/03/17 05:36:02;;;;;;;6.45;3.12;;;2.10;1.40;;;3.12;100.00;96005.52;649471;216;31534;-77
2022/03/17 05:38:51;;;;;;;4.10;3.20;;;2.20;1.40;;;3.09;100.00;96013.52;632195;221;31702;-75
2022/03/17 05:41:32;;;;;;;7.95;4.97;;;2.20;1.40;;;2.89;100.00;96016.80;647184;216;31620;-76
2022/03/17 05:44:26;;;;;;;7.72;4.70;;;2.10;1.40;;;3.06;100.00;96014.16;642866;215;31594;-76
2022/03/17 05:47:12;;;;;;;5.60;4.00;;;2.10;1.40;;;2.93;100.00;96013.88;620446;222;31914;-76
2022/03/17 05:50:02;;;;;;;4.15;3.62;;;2.00;1.40;;;2.96;100.00;96018.41;641029;214;31684;-75
2022/03/17 05:52:46;;;;;;;3.97;2.97;;;2.10;1.40;;;3.26;100.00;96022.37;631713;221;31691;-75
2022/03/17 05:55:27;;;;;;;8.10;4.85;;;2.20;1.40;;;3.29;100.00;96018.20;648876;212;31570;-75
2022/03/17 05:58:09;;;;;;;6.50;3.67;;;2.30;1.40;;;3.33;100.00;96019.38;646856;216;31630;-75
2022/03/17 06:00:51;;;;;;;4.95;4.45;;;2.40;1.40;;;3.58;100.00;96028.55;646466;216;31571;-76
2022/03/17 06:03:48;;;;;;;8.93;4.23;;;2.60;1.40;;;3.74;100.00;96026.50;621027;222;35315;-76
2022/03/17 06:09:09;;;;;;;7.65;5.20;;;2.70;1.40;;;3.86;100.00;96034.92;641145;214;31599;-74
2022/03/17 06:11:55;;;;;;;8.13;5.40;;;2.70;1.40;;;3.84;100.00;96030.11;647754;212;31747;-76
2022/03/17 06:14:43;;;;;;;6.95;4.43;;;2.70;1.40;;;4.05;100.00;96037.67;647626;212;31562;-75
2022/03/17 06:17:37;;;;;;;7.50;5.20;;;2.90;1.40;;;4.09;100.00;96044.88;648249;216;31540;-77
2022/03/17 06:20:24;;;;;;;9.48;4.45;;;3.00;1.40;;;4.17;100.00;96049.12;620140;222;32087;-76
2022/03/17 06:23:07;;;;;;;11.55;5.12;;;3.10;1.40;;;4.05;100.00;96047.06;627346;220;31697;-76
2022/03/17 06:25:49;;;;;;;6.50;5.40;;;3.10;1.40;;;4.28;100.00;96044.79;647482;212;43032;-76
2022/03/17 06:28:34;;;;;;;8.75;5.22;;;3.20;1.40;;;4.37;100.00;96053.95;643357;216;31706;-75
2022/03/17 06:31:18;;;;;;;7.90;4.57;;;3.30;1.40;;;4.84;100.00;96049.83;620705;226;31954;-76
2022/03/17 06:35:50;;;;;;;7.47;5.62;;;3.60;1.40;;;5.04;100.00;96044.29;647611;216;31578;-76
2022/03/17 06:38:36;;;;;;;8.13;4.90;;;3.70;1.40;;;4.84;100.00;96046.76;648011;212;31593;-75
2022/03/17 06:41:32;;;;;;;6.72;6.03;;;3.80;1.40;;;4.94;100.00;96047.45;645869;216;32089;-76
2022/03/17 06:44:14;;;;;;;8.02;4.82;;;3.80;1.40;;;5.15;100.00;96048.97;619323;222;31886;-74
2022/03/17 06:46:59;;;;;;;8.35;6.85;;;3.90;1.40;;;5.37;100.00;96052.94;647636;216;31581;-75
2022/03/17 06:50:00;;;;;;;7.40;6.60;;;4.00;1.40;;;5.39;100.00;96053.55;649727;212;42346;-77
2022/03/17 06:52:46;;;;;;;7.60;5.60;;;4.00;1.40;;;5.12;100.00;96062.05;647314;216;31564;-78
2022/03/17 06:55:35;;;;;;;7.33;4.90;;;4.10;1.40;;;4.95;100.00;96064.60;622002;222;31991;-79
2022/03/17 06:58:23;;;;;;;6.87;5.53;;;4.10;1.40;;;5.00;100.00;96059.49;647723;212;31783;-76
2022/03/17 07:01:07;;;;;;;8.57;6.53;;;4.10;1.40;;;5.21;100.00;96054.04;619558;226;31928;-78
2022/03/17 07:03:49;;;;;;;12.18;7.15;;;4.30;1.40;;;5.61;100.00;96060.44;646834;216;31589;-76
2022/03/17 07:06:31;;;;;;;4.90;3.83;;;4.50;1.40;;;5.20;100.00;96062.49;646045;212;31579;-77
2022/03/17 07:09:13;;;;;;;6.93;5.25;;;4.30;1.40;;;5.51;100.00;96066.14;618951;226;31939;-77
2022/03/17 07:11:54;;;;;;;8.50;5.72;;;4.50;1.40;;;5.42;100.00;96073.17;647536;212;42173;-77
2022/03/17 07:14:49;;;;;;;6.47;4.95;;;4.40;1.40;;;5.59;100.00;96066.94;620167;226;31877;-79
2022/03/17 07:17:39;;;;;;;5.97;4.03;;;4.50;1.40;;;5.71;100.00;96077.99;615967;230;23572;-78
2022/03/17 07:20:16;;;;;;;5.60;5.10;;;4.70;1.40;;;5.91;100.00;96080.88;619889;222;31969;-77
2022/03/17 07:22:58;;;;;;;6.25;4.60;;;4.90;1.40;;;5.37;100.00;96091.11;646803;216;31534;-77
2022/03/17 07:25:43;;;;;;;7.55;5.37;;;4.60;1.40;;;5.85;100.00;96092.27;619355;222;31949;-76
2022/03/17 07:28:26;;;;;;;6.97;5.95;;;4.80;1.40;;;5.97;100.00;96091.60;619372;222;31923;-78
2022/03/17 07:31:11;;;;;;;6.32;5.43;;;4.80;1.40;;;6.07;100.00;96084.23;619171;226;42569;-78
2022/03/17 07:36:00;;;;;;;9.48;5.00;;;4.80;1.40;;;5.49;100.00;96093.77;647431;212;31401;-77
2022/03/17 07:38:42;;;;;;;5.82;4.10;;;4.80;1.40;;;5.74;100.00;96096.95;645388;214;31584;-76
2022/03/17 07:41:32;;;;;;;6.70;5.50;;;4.90;1.40;;;5.50;100.00;96094.74;649073;216;31575;-77
2022/03/17 07:44:21;;;;;;;4.72;4.32;;;4.80;1.40;;;5.81;100.00;96101.44;617908;222;31942;-77
2022/03/17 07:47:03;;;;;;;5.10;4.60;;;4.90;1.40;;;6.01;100.00;96108.47;648300;212;31609;-77
2022/03/17 07:49:50;;;;;;;8.15;6.50;;;5.10;1.40;;;6.37;100.00;96109.17;648154;212;42165;-78
2022/03/17 07:52:36;;;;;;;8.00;5.03;;;5.20;1.40;;;6.59;100.00;96111.13;618633;223;32241;-77
2022/03/17 07:55:24;;;;;;;6.53;5.40;;;5.10;1.40;;;6.71;100.00;96114.71;646177;212;31599;-78
2022/03/17 07:58:05;;;;;;;7.65;5.03;;;5.30;1.40;;;6.45;100.00;96114.16;618730;222;31921;-77
2022/03/17 08:00:47;;;;;;;6.15;5.45;;;5.20;1.40;;;6.40;100.00;96122.00;646816;212;42274;-75
2022/03/17 08:03:29;;;;;;;6.30;4.73;;;5.00;1.40;;;6.49;100.00;96127.00;646522;212;31654;-77
2022/03/17 08:06:13;;;;;;;9.90;5.77;;;5.00;1.40;;;6.43;100.00;96128.05;615275;224;42571;-76
2022/03/17 08:08:53;;;;;;;6.32;4.60;;;4.90;1.40;;;6.37;100.00;96132.44;619339;226;42576;-77
2022/03/17 08:11:34;;;;;;;7.75;4.95;;;5.00;1.40;;;6.11;100.00;96137.55;619171;222;42755;-77
2022/03/17 08:14:16;;;;;;;7.28;6.05;;;4.70;1.40;;;6.10;100.00;96139.80;619155;222;32584;-76
2022/03/17 08:19:32;;;;;;;5.03;4.05;;;4.80;1.40;;;5.87;100.00;96137.32;619355;226;42227;-78
2022/03/17 08:22:14;;;;;;;6.87;5.27;;;4.80;1.40;;;6.24;100.00;96139.44;647333;212;31610;-77
2022/03/17 08:24:57;;;;;;;8.53;5.70;;;5.10;1.40;;;6.76;100.00;96141.78;645846;216;31714;-76
2022/03/17 08:27:39;;;;;;;6.90;5.57;;;5.20;1.40;;;6.56;100.00;96144.73;647838;216;32275;-77
2022/03/17 08:30:21;;;;;;;5.80;4.00;;;5.10;1.40;;;6.44;100.00;96147.34;647399;212;31587;-78
2022/03/17 08:35:52;;;;;;;9.07;6.22;;;5.20;1.40;;;6.81;100.00;96156.52;646324;216;31578;-77
2022/03/17 08:38:33;;;;;;;6.17;4.90;;;5.30;1.40;;;6.96;100.00;96155.58;647515;216;31554;-78
2022/03/17 08:41:15;;;;;;;7.75;5.12;;;5.40;1.40;;;6.62;100.00;96158.45;642280;217;31638;-77
2022/03/17 08:44:01;;;;;;;4.30;3.90;;;5.30;1.40;;;6.78;100.00;96155.86;647180;212;31581;-77
2022/03/17 08:49:43;;;;;;;8.20;6.10;;;5.20;1.40;;;6.48;100.00;96159.64;651328;213;42252;-79
2022/03/17 08:52:42;;;;;;;7.82;5.70;;;5.30;1.40;;;6.32;100.00;96162.10;648115;216;42222;-79
2022/03/17 08:55:30;;;;;;;7.63;5.67;;;5.30;1.40;;;6.80;100.00;96159.37;645732;216;31632;-76
2022/03/17 08:58:12;;;;;;;8.38;6.95;;;5.50;1.40;;;7.57;100.00;96167.15;642774;216;31626;-77
2022/03/17 09:01:01;;;;;;;8.13;6.20;;;6.00;1.40;;;6.93;100.00;96169.59;649589;216;31589;-76
2022/03/17 09:03:42;;;;;;;8.50;5.90;;;5.70;1.40;;;6.93;100.00;96171.58;619928;226;32065;-76
2022/03/17 09:06:35;;;;;;;5.03;4.62;;;5.80;1.40;;;7.17;100.00;96167.92;618643;226;32060;-77
2022/03/17 09:09:24;;;;;;;6.45;5.85;;;6.00;1.40;;;7.98;100.00;96177.38;648554;212;31541;-77
2022/03/17 09:12:06;;;;;;;8.35;5.97;;;6.40;1.40;;;8.50;100.00;96177.98;618710;222;31991;-77
2022/03/17 09:14:50;;;;;;;7.72;5.50;;;6.80;1.40;;;9.19;100.00;96178.41;620569;222;32229;-76
2022/03/17 09:17:35;;;;;;;7.97;6.43;;;7.00;1.40;;;8.69;100.00;96183.22;620060;226;31874;-78
2022/03/17 09:20:17;;;;;;;5.70;5.10;;;6.40;1.40;;;8.64;100.00;96181.77;648223;216;31598;-77
2022/03/17 09:22:58;;;;;;;8.70;5.93;;;6.60;1.40;;;8.57;100.00;96179.78;646425;212;31762;-78
2022/03/17 09:25:43;;;;;;;8.10;6.00;;;6.70;1.40;;;7.55;100.00;96185.66;647337;216;31678;-76
2022/03/17 09:28:27;;;;;;;10.77;7.27;;;6.40;1.40;;;7.98;100.00;96186.45;646782;216;31996;-77
2022/03/17 09:31:09;;;;;;;8.57;5.70;;;6.60;1.40;;;9.31;100.00;96183.09;647446;212;31652;-78
2022/03/17 09:35:53;;;;;;;7.95;6.10;;;6.50;1.40;;;8.82;100.00;96192.18;636404;220;31706;-77
2022/03/17 09:38:36;;;;;;;8.45;5.62;;;6.60;1.40;;;9.25;100.00;96190.02;648076;216;31604;-78
2022/03/17 09:41:24;;;;;;;7.37;5.10;;;7.00;1.40;;;9.18;100.00;96190.11;620313;226;32115;-77
2022/03/17 09:44:05;;;;;;;7.70;5.73;;;7.20;1.40;;;8.88;100.00;96196.11;646264;212;31656;-77
2022/03/17 09:46:48;;;;;;;8.77;5.35;;;7.00;1.40;;;8.98;100.00;96201.62;619696;226;31924;-77
2022/03/17 09:49:29;;;;;;;9.97;6.00;;;7.10;1.40;;;8.68;100.00;96197.97;648151;212;31731;-78
2022/03/17 09:52:13;;;;;;;8.52;6.62;;;6.80;1.40;;;8.97;100.00;96202.81;646961;212;31663;-77
2022/03/17 09:54:57;;;;;;;8.17;6.67;;;6.90;1.40;;;8.41;100.00;96202.86;619355;226;32533;-77
2022/03/17 09:57:39;;;;;;;7.70;5.85;;;6.80;1.40;;;9.31;100.00;96200.30;647179;216;31513;-76
2022/03/17 10:00:20;;;;;;;6.70;5.28;;;7.30;1.40;;;9.35;100.00;96202.72;646429;216;31531;-78
2022/03/17 10:03:06;;;;;;;8.10;6.22;;;7.50;1.40;;;9.25;100.00;96210.20;648400;213;31880;-76
2022/03/17 10:05:49;;;;;;;7.70;6.50;;;7.30;1.40;;;9.67;100.00;96208.88;648322;212;31566;-77
2022/03/17 10:08:36;;;;;;;4.50;4.03;;;7.50;1.40;;;9.80;100.00;96208.03;629530;225;23582;-77
2022/03/17 10:11:30;;;;;;;8.35;5.80;;;7.90;1.40;;;10.55;100.00;96206.00;651068;216;31687;-77
2022/03/17 10:14:12;;;;;;;7.12;5.85;;;8.20;1.40;;;10.48;100.00;96208.41;621557;225;42567;-76
2022/03/17 10:17:04;;;;;;;7.73;6.50;;;8.10;1.40;;;10.43;100.00;96206.33;646594;216;32306;-77
2022/03/17 10:19:52;;;;;;;8.40;6.18;;;8.30;1.40;;;10.85;100.00;96203.27;647114;216;31603;-77
2022/03/17 10:22:42;;;;;;;7.37;6.00;;;8.30;1.40;;;11.01;100.00;96205.34;646651;216;32312;-76
2022/03/17 10:27:58;;;;;;;8.35;6.75;;;8.20;1.40;;;10.49;100.00;96210.29;646929;216;31569;-77
2022/03/17 10:30:40;;;;;;;7.72;6.20;;;8.20;1.40;;;11.20;100.00;96209.66;642907;213;31594;-78
2022/03/17 10:35:54;;;;;;;8.65;6.22;;;8.70;1.40;;;9.58;100.00;96218.16;648001;212;32252;-77
2022/03/17 10:38:36;;;;;;;8.63;6.07;;;8.20;1.40;;;9.87;100.00;96218.20;619998;222;31921;-77
2022/03/17 10:41:18;;;;;;;7.60;6.17;;;8.20;1.40;;;10.23;100.00;96219.66;620154;222;42877;-77
2022/03/17 10:44:00;;;;;;;8.30;5.50;;;8.50;1.40;;;11.83;100.00;96221.33;619565;226;42598;-77
2022/03/17 10:46:41;;;;;;;6.50;4.50;;;9.40;1.40;;;12.60;100.00;96224.86;647615;212;31575;-78
2022/03/17 10:49:22;;;;;;;8.07;6.00;;;9.90;1.40;;;12.73;100.00;96229.34;647524;216;31580;-77
2022/03/17 10:52:04;;;;;;;8.30;5.60;;;9.90;1.40;;;12.16;100.00;96224.48;621191;222;31930;-78
2022/03/17 10:54:46;;;;;;;7.40;5.80;;;9.20;1.40;;;12.88;100.00;96221.75;646921;216;31585;-78
2022/03/17 10:57:28;;;;;;;10.67;6.17;;;9.80;1.40;;;10.20;100.00;96226.55;647885;216;31566;-78
2022/03/17 11:03:00;;;;;;;8.88;5.60;;;9.50;1.40;;;12.60;100.00;96228.61;647354;212;31884;-78
2022/03/17 11:05:42;;;;;;;8.82;5.20;;;9.70;1.40;;;12.85;100.00;96225.67;646830;216;33220;-77
2022/03/17 11:08:24;;;;;;;7.70;5.68;;;9.90;1.40;;;12.69;100.00;96228.31;646736;216;32026;-75
2022/03/17 11:11:06;;;;;;;9.40;5.05;;;9.70;1.40;;;12.41;100.00;96232.92;646861;212;42165;-77
2022/03/17 11:13:48;;;;;;;7.78;5.22;;;9.40;1.40;;;11.54;100.00;96228.78;647106;216;32496;-75
2022/03/17 11:16:36;;;;;;;7.57;5.78;;;9.10;1.40;;;11.42;100.00;96233.58;647508;212;31535;-75
2022/03/17 11:19:18;;;;;;;8.13;5.00;;;8.70;1.40;;;10.16;100.00;96233.03;620281;226;31935;-78
2022/03/17 11:22:08;;;;;;;6.23;4.80;;;8.40;1.40;;;11.74;100.00;96229.36;647279;216;31645;-77
2022/03/17 11:25:57;;;;;;;8.95;5.28;;;9.40;1.40;;;11.93;100.00;96231.70;646980;212;31638;-75
2022/03/17 11:28:43;;;;;;;5.87;5.00;;;9.40;1.40;;;11.08;100.00;96231.48;619694;226;32565;-76
2022/03/17 11:31:27;;;;;;;7.20;5.40;;;9.10;1.40;;;11.80;100.00;96236.53;647651;212;32185;-77
2022/03/17 11:35:55;;;;;;;9.63;5.70;;;9.30;1.40;;;12.11;100.00;96233.86;630668;221;32302;-77
2022/03/17 11:38:38;;;;;;;7.20;5.00;;;9.30;1.40;;;11.72;100.00;96231.28;646959;216;31555;-77
2022/03/17 11:41:22;;;;;;;9.07;5.62;;;9.10;1.40;;;10.30;100.00;96234.17;619393;226;42545;-77
2022/03/17 11:44:04;;;;;;;6.80;5.07;;;8.60;1.40;;;10.85;100.00;96229.47;620793;226;33695;-78
2022/03/17 11:46:46;;;;;;;8.23;5.40;;;8.70;1.40;;;11.72;100.00;96234.06;647431;216;32946;-75
2022/03/17 11:49:28;;;;;;;10.15;6.22;;;9.20;1.40;;;12.25;100.00;96230.70;619481;226;31975;-76
2022/03/17 11:52:09;;;;;;;10.90;5.70;;;9.60;1.40;;;12.51;100.00;96234.97;647437;212;32026;-77
2022/03/17 11:54:51;;;;;;;7.43;5.62;;;9.70;1.40;;;11.22;100.00;96232.33;646707;212;31926;-75
2022/03/17 11:57:34;;;;;;;7.75;5.20;;;9.20;1.40;;;11.77;100.00;96227.09;646432;212;32897;-78
2022/03/17 12:00:14;;;;;;;6.80;5.18;;;9.40;1.40;;;11.82;100.00;96230.53;647262;216;31712;-77
2022/03/17 12:03:04;;;;;;;7.67;5.60;;;9.50;1.40;;;11.77;100.00;96228.29;647807;216;31488;-77
2022/03/17 12:05:44;;;;;;;8.30;5.40;;;9.60;1.40;;;11.89;100.00;96225.86;646526;216;31640;-77
2022/03/17 12:08:26;;;;;;;7.17;5.30;;;9.40;1.40;;;11.42;100.00;96226.73;647511;216;31574;-77
2022/03/17 12:11:08;;;;;;;8.15;5.68;;;9.30;1.40;;;11.92;100.00;96224.93;647753;212;43687;-74
2022/03/17 12:14:07;;;;;;;9.45;6.10;;;9.40;1.40;;;12.13;100.00;96223.06;619222;222;31889;-76
2022/03/17 12:17:03;;;;;;;8.17;5.53;;;9.50;1.40;;;12.11;100.00;96219.95;647510;213;31607;-78
2022/03/17 12:19:50;;;;;;;10.40;6.03;;;9.40;1.40;;;11.96;100.00;96216.55;647009;212;42863;-77
2022/03/17 12:22:36;;;;;;;7.03;4.90;;;9.60;1.40;;;12.70;100.00;96217.58;646876;216;31560;-75
2022/03/17 12:25:18;;;;;;;8.15;5.82;;;10.10;1.40;;;12.84;100.00;96216.33;647583;216;33458;-77
2022/03/17 12:28:04;;;;;;;7.82;5.53;;;9.90;1.40;;;12.22;100.00;96220.16;647120;216;31835;-75
2022/03/17 12:30:45;;;;;;;8.20;5.45;;;9.70;1.40;;;12.47;100.00;96221.22;647011;212;32164;-76
2022/03/17 12:36:04;;;;;;;8.77;4.93;;;9.20;1.40;;;10.21;100.00;96222.54;646687;212;31604;-76
2022/03/17 12:38:51;;;;;;;6.77;5.00;;;8.90;1.40;;;11.72;100.00;96219.89;619063;225;32119;-76
2022/03/17 12:41:36;;;;;;;8.30;5.77;;;9.40;1.40;;;12.28;100.00;96223.23;647278;216;31634;-78
2022/03/17 12:46:55;;;;;;;6.03;4.43;;;9.40;1.40;;;12.08;100.00;96217.34;647403;212;31566;-77
2022/03/17 12:49:37;;;;;;;7.97;5.53;;;9.70;1.40;;;11.92;100.00;96223.95;647720;216;31641;-76
2022/03/17 12:52:21;;;;;;;7.40;4.60;;;9.60;1.40;;;12.24;100.00;96224.52;648619;212;31527;-76
2022/03/17 12:55:03;;;;;;;6.70;5.60;;;9.70;1.40;;;12.11;100.00;96225.48;647970;212;31737;-77
2022/03/17 12:57:47;;;;;;;7.60;4.95;;;9.80;1.40;;;12.18;100.00;96224.56;646315;216;31583;-75
2022/03/17 13:00:28;;;;;;;5.43;4.28;;;9.70;1.40;;;12.13;100.00;96224.41;647676;216;32967;-77
2022/03/17 13:03:09;;;;;;;8.07;5.57;;;9.60;1.40;;;12.15;100.00;96221.24;647749;216;42208;-78
2022/03/17 13:08:41;;;;;;;7.60;5.30;;;9.60;1.40;;;11.83;100.00;96226.38;646788;216;31758;-76
2022/03/17 13:14:26;;;;;;;6.20;5.10;;;9.60;1.40;;;12.13;100.00;96227.52;620314;222;32058;-78
2022/03/17 13:17:07;;;;;;;5.00;4.33;;;9.50;1.40;;;12.33;100.00;96229.09;619173;226;32107;-76